Аэропорт: Сары-Арка. Караганда

ICAO: UAKK

METAR:
2019-09-21 16:00:00
UAKK 211600Z 09003MPS CAVOK 07/M00 Q1016 R05/0///70 NOSIG RMK QFE715/0953
METAR:
2019-09-21 11:00:00
TAF UAKK 211100Z 2112/2212 10005MPS 9999 SCT040 SCT100 TX29/2210Z TN05/2123Z TEMPO 2112/2116 VRB02MPS BECMG 2118/2120 14006MPS BECMG 2203/2205 18008MPS BKN100 TEMPO 2203/2212 20013G18MPS